createdAt,value
2022-08-26T00:02:08.977Z,19.40
2022-08-26T00:04:37.919Z,19.13
2022-08-26T00:07:07.876Z,17.58
2022-08-26T00:09:40.514Z,20.48
2022-08-26T00:12:12.994Z,19.65
2022-08-26T00:14:43.789Z,22.15
2022-08-26T00:17:12.887Z,21.33
2022-08-26T00:19:43.757Z,16.25
2022-08-26T00:22:14.305Z,20.35
2022-08-26T00:24:50.625Z,18.65
2022-08-26T00:27:21.674Z,18.83
2022-08-26T00:29:50.860Z,19.13
2022-08-26T00:32:19.853Z,18.52
2022-08-26T00:34:48.530Z,15.98
2022-08-26T00:37:19.642Z,16.52
2022-08-26T00:39:50.630Z,15.77
2022-08-26T00:42:25.057Z,16.42
2022-08-26T00:44:54.454Z,16.35
2022-08-26T00:47:26.348Z,15.98
2022-08-26T00:50:01.557Z,16.50
2022-08-26T00:52:37.523Z,15.93
2022-08-26T00:55:10.444Z,15.73
2022-08-26T00:57:41.204Z,16.23
2022-08-26T01:00:15.194Z,16.98
2022-08-26T01:02:46.903Z,17.48
2022-08-26T01:05:17.551Z,16.65
2022-08-26T01:07:47.394Z,16.00
2022-08-26T01:10:23.350Z,14.88
2022-08-26T01:12:59.032Z,16.67
2022-08-26T01:15:32.806Z,18.17
2022-08-26T01:18:05.784Z,17.27
2022-08-26T01:20:43.790Z,17.67
2022-08-26T01:23:16.703Z,18.65
2022-08-26T01:25:47.919Z,17.88
2022-08-26T01:28:24.887Z,18.25
2022-08-26T01:30:58.112Z,17.10
2022-08-26T01:33:42.176Z,16.30
2022-08-26T01:36:12.125Z,17.52
2022-08-26T01:38:42.598Z,17.65
2022-08-26T01:41:16.240Z,15.65
2022-08-26T01:43:51.617Z,15.63
2022-08-26T01:46:21.297Z,17.30
2022-08-26T01:48:54.352Z,16.35
2022-08-26T01:51:24.538Z,18.10
2022-08-26T01:53:54.064Z,17.45
2022-08-26T01:56:24.129Z,16.38
2022-08-26T01:58:54.622Z,18.17
2022-08-26T02:01:29.209Z,15.70
2022-08-26T02:04:06.843Z,17.55
2022-08-26T02:06:36.931Z,17.50
2022-08-26T02:09:08.103Z,16.75
2022-08-26T02:11:36.750Z,17.80
2022-08-26T02:14:09.784Z,16.83
2022-08-26T02:16:42.263Z,16.65
2022-08-26T02:19:17.269Z,18.38
2022-08-26T02:21:51.255Z,15.88
2022-08-26T02:24:23.352Z,18.13
2022-08-26T02:26:52.420Z,17.60
2022-08-26T02:29:25.573Z,17.20
2022-08-26T02:31:55.765Z,18.60
2022-08-26T02:34:28.193Z,17.20
2022-08-26T02:37:00.643Z,17.27
2022-08-26T02:39:31.757Z,18.40
2022-08-26T02:42:00.652Z,19.23
2022-08-26T02:44:28.818Z,17.60
2022-08-26T02:46:57.032Z,16.90
2022-08-26T02:49:25.582Z,16.75
2022-08-26T02:51:54.126Z,15.40
2022-08-26T02:54:22.960Z,17.15
2022-08-26T02:56:52.854Z,19.00
2022-08-26T02:59:24.471Z,17.75
2022-08-26T03:01:56.057Z,19.55
2022-08-26T03:04:25.743Z,18.35
2022-08-26T03:06:55.520Z,18.50
2022-08-26T03:09:25.814Z,16.38
2022-08-26T03:11:58.778Z,18.00
2022-08-26T03:14:30.825Z,16.50
2022-08-26T03:17:02.794Z,16.02
2022-08-26T03:20:13.657Z,14.77
2022-08-26T03:23:19.628Z,14.60
2022-08-26T03:26:20.817Z,16.33
2022-08-26T03:29:40.724Z,16.20
2022-08-26T03:32:47.815Z,14.68
2022-08-26T03:35:59.815Z,14.45
2022-08-26T03:38:46.960Z,14.10
2022-08-26T03:41:56.900Z,16.35
2022-08-26T03:44:46.790Z,14.95
2022-08-26T03:47:57.875Z,13.90
2022-08-26T03:50:50.929Z,13.38
2022-08-26T03:53:37.768Z,11.97
2022-08-26T03:59:54.767Z,12.45
2022-08-26T04:02:41.866Z,12.65
2022-08-26T04:05:49.786Z,11.93
2022-08-26T04:08:36.797Z,12.38
2022-08-26T04:14:53.869Z,12.25
2022-08-26T04:17:29.879Z,10.40
2022-08-26T04:19:58.804Z,12.70
2022-08-26T04:22:27.758Z,10.25
2022-08-26T04:24:59.691Z,11.07
2022-08-26T04:27:29.542Z,9.38
2022-08-26T04:29:59.757Z,11.60
2022-08-26T04:32:30.544Z,10.05
2022-08-26T04:35:00.734Z,10.48
2022-08-26T04:37:32.819Z,11.70
2022-08-26T04:40:01.670Z,11.63
2022-08-26T04:42:32.130Z,11.90
2022-08-26T04:45:05.778Z,10.65
2022-08-26T04:47:38.363Z,11.60
2022-08-26T04:50:08.903Z,11.35
2022-08-26T04:52:39.491Z,11.43
2022-08-26T04:55:08.805Z,12.32
2022-08-26T04:57:37.354Z,13.40
2022-08-26T05:00:10.233Z,12.30
2022-08-26T05:02:39.557Z,12.77
2022-08-26T05:05:09.503Z,12.38
2022-08-26T05:07:38.152Z,12.05
2022-08-26T05:10:08.724Z,12.57
2022-08-26T05:12:37.365Z,10.30
2022-08-26T05:15:10.604Z,10.93
2022-08-26T05:17:39.271Z,10.77
2022-08-26T05:20:09.000Z,12.07
2022-08-26T05:22:37.147Z,11.38
2022-08-26T05:25:05.713Z,12.05
2022-08-26T05:27:33.863Z,11.10
2022-08-26T05:30:01.920Z,10.65
2022-08-26T05:32:32.062Z,10.68
2022-08-26T05:35:00.253Z,10.57
2022-08-26T05:37:28.779Z,10.40
2022-08-26T05:39:57.598Z,10.68
2022-08-26T05:42:26.145Z,9.00
2022-08-26T05:44:56.213Z,10.48
2022-08-26T05:47:24.792Z,10.02
2022-08-26T05:49:54.576Z,9.38
2022-08-26T05:52:24.690Z,9.55
2022-08-26T05:54:54.466Z,9.43
2022-08-26T05:57:23.197Z,9.77
2022-08-26T05:59:51.732Z,9.20
2022-08-26T06:02:20.999Z,8.43
2022-08-26T06:04:49.150Z,8.23
2022-08-26T06:07:38.846Z,8.20
2022-08-26T06:10:31.192Z,7.63
2022-08-26T06:12:57.483Z,7.47
2022-08-26T06:15:26.016Z,8.02
2022-08-26T06:17:54.210Z,7.70
2022-08-26T06:20:22.318Z,8.27
2022-08-26T06:23:09.322Z,8.25
2022-08-26T06:25:39.547Z,8.23
2022-08-26T06:28:08.946Z,7.85
2022-08-26T06:30:41.576Z,8.35
2022-08-26T06:33:10.250Z,8.85
2022-08-26T06:35:39.782Z,7.85
2022-08-26T06:38:09.784Z,7.68
2022-08-26T06:40:42.257Z,8.27
2022-08-26T06:43:11.317Z,7.57
2022-08-26T06:45:39.801Z,7.78
2022-08-26T06:48:09.549Z,8.85
2022-08-26T06:50:37.846Z,8.75
2022-08-26T06:53:06.043Z,8.57
2022-08-26T06:55:41.464Z,9.55
2022-08-26T06:58:10.792Z,9.32
2022-08-26T07:00:39.716Z,7.97
2022-08-26T07:03:10.449Z,8.80
2022-08-26T07:05:39.057Z,9.10
2022-08-26T07:08:07.519Z,9.70
2022-08-26T07:10:38.319Z,8.68
2022-08-26T07:13:07.949Z,7.95
2022-08-26T07:15:40.235Z,6.68
2022-08-26T07:18:09.131Z,7.18
2022-08-26T07:20:42.296Z,5.22
2022-08-26T07:23:12.101Z,6.20
2022-08-26T07:25:43.157Z,5.30
2022-08-26T07:28:12.473Z,5.40
2022-08-26T07:30:42.005Z,5.70
2022-08-26T07:33:11.148Z,5.10
2022-08-26T07:35:39.864Z,4.95
2022-08-26T07:38:09.284Z,5.25
2022-08-26T07:40:39.061Z,4.45
2022-08-26T07:43:09.612Z,4.97
2022-08-26T07:45:38.568Z,5.45
2022-08-26T07:48:07.262Z,5.43
2022-08-26T07:50:50.181Z,5.47
2022-08-26T07:55:49.453Z,4.93
2022-08-26T07:58:22.588Z,5.00
2022-08-26T08:00:55.487Z,3.58
2022-08-26T08:03:27.777Z,3.35
2022-08-26T08:05:58.368Z,2.75
2022-08-26T08:08:29.329Z,2.72
2022-08-26T08:10:59.704Z,2.60
2022-08-26T08:13:31.142Z,3.05
2022-08-26T08:16:00.773Z,2.83
2022-08-26T08:18:30.257Z,3.20
2022-08-26T08:21:20.900Z,2.90
2022-08-26T08:23:52.182Z,3.17
2022-08-26T08:26:22.879Z,2.97
2022-08-26T08:28:56.814Z,3.00
2022-08-26T08:31:56.212Z,3.80
2022-08-26T08:34:22.900Z,2.67
2022-08-26T08:36:53.407Z,3.17
2022-08-26T08:39:23.385Z,2.80
2022-08-26T08:42:17.034Z,2.63
2022-08-26T08:44:52.739Z,3.05
2022-08-26T08:47:36.275Z,2.67
2022-08-26T08:50:15.373Z,2.22
2022-08-26T08:52:52.842Z,2.78
2022-08-26T08:55:23.656Z,3.03
2022-08-26T08:58:03.992Z,2.33
2022-08-26T09:00:44.920Z,3.35
2022-08-26T09:03:33.306Z,2.20
2022-08-26T09:06:04.113Z,2.95
2022-08-26T09:08:38.536Z,2.40
2022-08-26T09:11:10.011Z,2.83
2022-08-26T09:13:46.703Z,2.78
2022-08-26T09:16:26.549Z,2.95
2022-08-26T09:19:09.036Z,2.80
2022-08-26T09:21:38.793Z,2.67
2022-08-26T09:24:11.278Z,2.50
2022-08-26T09:26:47.431Z,3.40
2022-08-26T09:29:28.919Z,2.40
2022-08-26T09:32:21.509Z,2.42
2022-08-26T09:34:58.235Z,2.97
2022-08-26T09:37:39.720Z,2.60
2022-08-26T09:40:19.398Z,3.03
2022-08-26T09:43:09.603Z,2.88
2022-08-26T09:45:50.097Z,3.00
2022-08-26T09:48:31.628Z,2.92
2022-08-26T09:51:02.720Z,2.58
2022-08-26T09:53:57.992Z,2.30
2022-08-26T09:56:32.864Z,2.00
2022-08-26T09:59:05.022Z,2.45
2022-08-26T10:01:41.901Z,2.63
2022-08-26T10:04:17.841Z,2.83
2022-08-26T10:07:00.270Z,2.47
2022-08-26T10:09:32.101Z,2.92
2022-08-26T10:12:04.474Z,2.70
2022-08-26T10:14:49.361Z,3.00
2022-08-26T10:17:32.300Z,2.35
2022-08-26T10:20:23.244Z,2.63
2022-08-26T10:23:00.370Z,2.53
2022-08-26T10:25:35.396Z,2.92
2022-08-26T10:28:11.993Z,2.20
2022-08-26T10:30:55.833Z,2.83
2022-08-26T10:33:27.726Z,2.20
2022-08-26T10:36:06.426Z,2.20
2022-08-26T10:38:38.518Z,3.38
2022-08-26T10:41:13.595Z,2.28
2022-08-26T10:43:54.755Z,2.55
2022-08-26T10:46:35.518Z,2.20
2022-08-26T10:49:14.294Z,3.08
2022-08-26T10:51:53.733Z,2.60
2022-08-26T10:54:32.334Z,2.10
2022-08-26T10:57:05.872Z,3.00
2022-08-26T10:59:57.913Z,2.80
2022-08-26T11:02:35.579Z,2.92
2022-08-26T11:05:08.842Z,2.83
2022-08-26T11:07:47.158Z,2.50
2022-08-26T11:11:04.328Z,2.97
2022-08-26T11:14:03.412Z,2.72
2022-08-26T11:16:43.828Z,2.53
2022-08-26T11:19:58.837Z,3.17
2022-08-26T11:22:31.560Z,2.67
2022-08-26T11:25:11.433Z,2.22
2022-08-26T11:28:01.375Z,2.28
2022-08-26T11:30:57.478Z,2.67
2022-08-26T11:34:00.920Z,2.55
2022-08-26T11:36:53.979Z,2.10
2022-08-26T11:39:36.685Z,2.30
2022-08-26T11:42:22.711Z,3.70
2022-08-26T11:44:51.772Z,2.05
2022-08-26T11:47:29.558Z,3.30
2022-08-26T11:50:12.739Z,2.55
2022-08-26T11:52:41.269Z,2.78
2022-08-26T11:55:12.241Z,2.70
2022-08-26T11:57:47.235Z,2.58
2022-08-26T12:00:21.207Z,2.30
2022-08-26T12:02:52.526Z,2.60
2022-08-26T12:05:25.483Z,2.50
2022-08-26T12:07:59.999Z,3.08
2022-08-26T12:10:30.893Z,3.40
2022-08-26T12:13:04.000Z,2.95
2022-08-26T12:15:35.687Z,2.65
2022-08-26T12:18:29.434Z,2.38
2022-08-26T12:21:03.431Z,2.47
2022-08-26T12:23:43.361Z,2.55
2022-08-26T12:26:19.862Z,2.25
2022-08-26T12:28:53.096Z,2.38
2022-08-26T12:31:29.353Z,2.25
2022-08-26T12:34:00.260Z,2.42
2022-08-26T12:36:32.074Z,1.85
2022-08-26T12:39:10.036Z,1.80
2022-08-26T12:41:50.413Z,2.00
2022-08-26T12:44:53.117Z,2.03
2022-08-26T12:47:30.988Z,1.77
2022-08-26T12:50:19.346Z,2.28
2022-08-26T12:52:56.940Z,1.85
2022-08-26T12:55:35.558Z,1.60
2022-08-26T12:58:26.496Z,1.92
2022-08-26T13:00:58.206Z,2.33
2022-08-26T13:03:43.953Z,2.25
2022-08-26T13:06:15.721Z,2.53
2022-08-26T13:08:46.060Z,2.30
2022-08-26T13:11:18.623Z,2.17
2022-08-26T13:13:47.121Z,2.80
2022-08-26T13:16:16.790Z,3.33
2022-08-26T13:18:45.244Z,3.47
2022-08-26T13:21:17.609Z,2.67
2022-08-26T13:23:46.384Z,2.72
2022-08-26T13:26:15.400Z,3.78
2022-08-26T13:28:44.633Z,2.85
2022-08-26T13:31:17.898Z,3.17
2022-08-26T13:33:48.611Z,3.13
2022-08-26T13:36:17.548Z,3.05
2022-08-26T13:38:48.296Z,3.25
2022-08-26T13:41:23.631Z,3.45
2022-08-26T13:43:58.935Z,2.95
2022-08-26T13:46:32.784Z,2.85
2022-08-26T13:49:03.102Z,2.60
2022-08-26T13:51:33.664Z,2.67
2022-08-26T13:54:02.301Z,2.22
2022-08-26T13:56:32.407Z,3.08
2022-08-26T13:59:04.318Z,2.60
2022-08-26T14:01:36.227Z,2.15
2022-08-26T14:04:07.183Z,2.60
2022-08-26T14:06:36.704Z,2.30
2022-08-26T14:09:05.417Z,2.47
2022-08-26T14:11:41.146Z,2.28
2022-08-26T14:14:22.891Z,2.78
2022-08-26T14:16:59.831Z,2.30
2022-08-26T14:19:33.841Z,2.70
2022-08-26T14:22:04.551Z,2.25
2022-08-26T14:24:34.899Z,2.60
2022-08-26T14:27:05.737Z,2.38
2022-08-26T14:29:36.712Z,2.72
2022-08-26T14:32:13.712Z,2.20
2022-08-26T14:34:44.808Z,2.10
2022-08-26T14:37:15.530Z,2.35
2022-08-26T14:39:46.502Z,2.25
2022-08-26T14:42:23.280Z,2.28
2022-08-26T14:45:01.832Z,5.03
2022-08-26T14:47:33.534Z,2.97
2022-08-26T14:50:05.240Z,4.03
2022-08-26T14:52:56.417Z,2.80
2022-08-26T14:55:25.016Z,2.13
2022-08-26T14:57:56.275Z,2.03
2022-08-26T15:00:27.292Z,2.00
2022-08-26T15:03:00.230Z,1.50
2022-08-26T15:05:31.011Z,2.42
2022-08-26T15:08:02.460Z,2.22
2022-08-26T15:10:31.189Z,1.98
2022-08-26T15:13:01.047Z,3.03
2022-08-26T15:15:31.427Z,3.53
2022-08-26T15:18:04.651Z,2.55
2022-08-26T15:23:07.851Z,1.70
2022-08-26T15:25:37.167Z,1.80
2022-08-26T15:28:06.362Z,2.30
2022-08-26T15:30:35.040Z,1.98
2022-08-26T15:33:06.525Z,2.10
2022-08-26T15:35:45.477Z,1.65
2022-08-26T15:38:15.899Z,1.58
2022-08-26T15:40:45.359Z,1.60
2022-08-26T15:43:28.822Z,1.95
2022-08-26T15:46:01.447Z,1.73
2022-08-26T15:48:33.840Z,1.90
2022-08-26T15:51:03.866Z,1.15
2022-08-26T15:53:35.132Z,1.73
2022-08-26T15:56:06.277Z,1.55
2022-08-26T15:58:39.888Z,2.00
2022-08-26T16:01:12.214Z,1.70
2022-08-26T16:03:43.078Z,1.40
2022-08-26T16:06:15.619Z,2.00
2022-08-26T16:08:45.333Z,1.60
2022-08-26T16:11:19.189Z,2.45
2022-08-26T16:13:48.570Z,1.60
2022-08-26T16:16:19.886Z,3.15
2022-08-26T16:18:50.437Z,3.08
2022-08-26T16:21:20.792Z,2.38
2022-08-26T16:23:53.031Z,1.38
2022-08-26T16:26:27.526Z,1.60
2022-08-26T16:28:58.316Z,1.23
2022-08-26T16:31:29.843Z,1.95
2022-08-26T16:34:02.629Z,1.67
2022-08-26T16:36:32.159Z,1.02
2022-08-26T16:39:02.160Z,1.30
2022-08-26T16:41:33.820Z,1.30
2022-08-26T16:44:06.123Z,1.58
2022-08-26T16:46:36.408Z,1.60
2022-08-26T16:49:07.602Z,1.55
2022-08-26T16:51:38.426Z,1.33
2022-08-26T16:54:09.839Z,1.33
2022-08-26T16:56:42.013Z,1.13
2022-08-26T16:59:15.561Z,1.20
2022-08-26T17:01:44.854Z,1.27
2022-08-26T17:04:16.044Z,1.30
2022-08-26T17:06:46.150Z,1.42
2022-08-26T17:09:17.719Z,1.20
2022-08-26T17:11:49.210Z,2.38
2022-08-26T17:14:18.914Z,0.73
2022-08-26T17:16:51.743Z,0.90
2022-08-26T17:21:56.801Z,1.10
2022-08-26T17:24:26.450Z,0.85
2022-08-26T17:26:59.186Z,0.95
2022-08-26T17:29:30.403Z,1.10
2022-08-26T17:32:02.995Z,1.48
2022-08-26T17:34:35.716Z,1.60
2022-08-26T17:37:05.601Z,1.25
2022-08-26T17:39:34.969Z,1.33
2022-08-26T17:42:04.188Z,1.25
2022-08-26T17:44:32.560Z,1.30
2022-08-26T17:47:00.921Z,1.50
2022-08-26T17:49:29.507Z,1.60
2022-08-26T17:52:00.333Z,1.75
2022-08-26T17:54:31.722Z,0.98
2022-08-26T17:57:01.477Z,1.02
2022-08-26T17:59:33.064Z,1.60
2022-08-26T18:02:06.498Z,1.55
2022-08-26T18:04:35.014Z,1.52
2022-08-26T18:07:09.227Z,1.35
2022-08-26T18:09:38.369Z,1.15
2022-08-26T18:12:08.726Z,1.05
2022-08-26T18:14:37.596Z,1.77
2022-08-26T18:17:11.741Z,1.48
2022-08-26T18:19:45.173Z,1.20
2022-08-26T18:22:17.552Z,1.35
2022-08-26T18:24:56.529Z,1.63
2022-08-26T18:27:29.939Z,1.08
2022-08-26T18:30:00.938Z,1.17
2022-08-26T18:32:32.105Z,1.45
2022-08-26T18:35:02.343Z,1.48
2022-08-26T18:37:34.239Z,1.27
2022-08-26T18:40:04.867Z,1.20
2022-08-26T18:42:33.671Z,1.92
2022-08-26T18:45:02.557Z,1.52
2022-08-26T18:47:32.245Z,1.10
2022-08-26T18:50:03.652Z,1.00
2022-08-26T18:52:34.376Z,1.60
2022-08-26T18:55:03.715Z,0.98
2022-08-26T18:57:31.886Z,2.30
2022-08-26T19:00:00.380Z,1.30
2022-08-26T19:02:32.718Z,1.10
2022-08-26T19:05:01.339Z,1.05
2022-08-26T19:07:29.979Z,0.95
2022-08-26T19:09:59.488Z,1.75
2022-08-26T19:12:27.514Z,1.60
2022-08-26T19:14:55.742Z,1.27
2022-08-26T19:17:24.247Z,1.75
2022-08-26T19:19:53.565Z,1.35
2022-08-26T19:22:22.168Z,1.13
2022-08-26T19:24:50.156Z,1.00
2022-08-26T19:27:20.215Z,1.08
2022-08-26T19:29:50.282Z,1.17
2022-08-26T19:32:24.198Z,1.23
2022-08-26T19:34:52.902Z,1.23
2022-08-26T19:37:21.860Z,1.30
2022-08-26T19:39:50.150Z,1.80
2022-08-26T19:42:20.271Z,1.23
2022-08-26T19:45:06.967Z,1.60
2022-08-26T19:47:41.557Z,1.40
2022-08-26T19:50:14.409Z,1.45
2022-08-26T19:52:44.296Z,1.60
2022-08-26T19:55:15.044Z,1.70
2022-08-26T19:57:45.371Z,1.25
2022-08-26T20:00:17.036Z,1.63
2022-08-26T20:02:50.182Z,1.70
2022-08-26T20:07:50.552Z,1.50
2022-08-26T20:10:25.137Z,1.38
2022-08-26T20:12:56.796Z,1.20
2022-08-26T20:15:28.512Z,1.55
2022-08-26T20:17:59.128Z,1.50
2022-08-26T20:20:45.485Z,1.42
2022-08-26T20:23:17.396Z,1.50
2022-08-26T20:25:48.782Z,1.38
2022-08-26T20:28:20.538Z,1.20
2022-08-26T20:30:51.383Z,1.30
2022-08-26T20:33:24.366Z,1.50
2022-08-26T20:35:53.866Z,1.25
2022-08-26T20:38:23.698Z,1.67
2022-08-26T20:40:52.158Z,1.75
2022-08-26T20:43:25.851Z,1.55
2022-08-26T20:45:54.348Z,1.27
2022-08-26T20:48:22.845Z,1.63
2022-08-26T20:50:51.137Z,1.90
2022-08-26T20:53:19.213Z,2.03
2022-08-26T20:55:47.816Z,1.50
2022-08-26T20:58:16.023Z,1.40
2022-08-26T21:00:45.546Z,1.13
2022-08-26T21:03:14.656Z,1.13
2022-08-26T21:05:43.199Z,1.23
2022-08-26T21:08:12.070Z,1.33
2022-08-26T21:10:40.766Z,1.40
2022-08-26T21:13:09.258Z,2.10
2022-08-26T21:15:37.643Z,1.42
2022-08-26T21:18:07.284Z,1.80
2022-08-26T21:20:37.112Z,1.50
2022-08-26T21:23:06.866Z,1.65
2022-08-26T21:25:35.145Z,1.63
2022-08-26T21:28:03.335Z,1.45
2022-08-26T21:30:31.727Z,2.17
2022-08-26T21:32:59.785Z,1.55
2022-08-26T21:35:30.242Z,1.73
2022-08-26T21:38:00.188Z,2.05
2022-08-26T21:40:31.227Z,1.40
2022-08-26T21:43:00.409Z,1.50
2022-08-26T21:45:29.210Z,1.85
2022-08-26T21:47:58.004Z,1.80
2022-08-26T21:50:26.161Z,1.40
2022-08-26T21:52:57.461Z,1.95
2022-08-26T21:55:27.618Z,1.42
2022-08-26T21:57:57.708Z,1.30
2022-08-26T22:00:26.370Z,1.55
2022-08-26T22:02:55.059Z,1.42
2022-08-26T22:05:23.775Z,1.70
2022-08-26T22:07:53.765Z,1.65
2022-08-26T22:10:24.741Z,1.17
2022-08-26T22:12:54.022Z,1.50
2022-08-26T22:15:27.604Z,1.50
2022-08-26T22:17:57.881Z,1.52
2022-08-26T22:20:26.532Z,1.20
2022-08-26T22:22:55.041Z,1.40
2022-08-26T22:25:26.354Z,1.40
2022-08-26T22:27:55.547Z,1.45
2022-08-26T22:30:25.352Z,1.38
2022-08-26T22:32:54.358Z,1.60
2022-08-26T22:35:28.310Z,1.40
2022-08-26T22:37:59.641Z,2.10
2022-08-26T22:40:30.478Z,1.52
2022-08-26T22:43:00.367Z,1.70
2022-08-26T22:45:32.196Z,1.58
2022-08-26T22:48:04.821Z,1.30
2022-08-26T22:50:33.270Z,1.60
2022-08-26T22:53:01.402Z,1.65
2022-08-26T22:55:32.597Z,1.83
2022-08-26T22:58:04.601Z,1.42
2022-08-26T23:00:34.993Z,1.75
2022-08-26T23:03:04.707Z,1.77
2022-08-26T23:05:34.928Z,1.85
2022-08-26T23:08:05.995Z,1.60
2022-08-26T23:10:38.742Z,1.92
2022-08-26T23:13:09.790Z,2.40
2022-08-26T23:15:42.468Z,2.80
2022-08-26T23:18:14.667Z,3.55
2022-08-26T23:20:44.326Z,4.43
2022-08-26T23:23:14.892Z,3.78
2022-08-26T23:25:46.379Z,3.22
2022-08-26T23:28:16.749Z,1.67
2022-08-26T23:30:46.649Z,1.70
2022-08-26T23:33:15.835Z,1.50
2022-08-26T23:35:45.441Z,1.63
2022-08-26T23:38:16.405Z,2.20
2022-08-26T23:40:48.771Z,2.05
2022-08-26T23:43:17.777Z,1.73
2022-08-26T23:45:45.744Z,2.00
2022-08-26T23:48:13.968Z,1.40
2022-08-26T23:51:02.665Z,1.80
2022-08-26T23:53:30.933Z,1.60
2022-08-26T23:56:00.579Z,2.35
2022-08-26T23:58:28.777Z,1.95
